Terminal Aerodrome Forecast
Issued by NWS Jackson, MS

Home | Current Version | Previous Version | Text Only | Print | Product List | Glossary On
Versions: 1 2 3 4 5 6 7 8 9 10 11 12 13 14 15 16
000
FTUS44 KJAN 301720
TAFJAN
TAF
KJAN 301720Z 3018/0118 16012G19KT P6SM -TSRA FEW015 SCT030CB OVC090
     FM301900 17016G23KT P6SM VCTS SCT030CB OVC040
     FM010000 21010KT P6SM OVC060
     FM011400 24014G21KT P6SM SKC=

USA.gov is the U.S. government's official web portal to all federal, state and local government web resources and services.